Time;durP1;ratioP1;P1;durP2;ratioP2;P2;SDS_P1;SDS_P2;PMS_P1;PMS_P2;Temp;Humidity;BMP_temperature;BMP_pressure;BME280_temperature;BME280_humidity;BME280_pressure;Samples;Min_cycle;Max_cycle;Signal;HPM_P1;HPM_P2
2023/07/05 00:00:19;;;;;;;;;;;14.10;99.90;;;;;;5109134;28;20021;-77
2023/07/05 00:02:45;;;;;;;;;;;14.00;99.90;;;;;;5093089;28;19980;-75
2023/07/05 00:05:11;;;;;;;;;;;14.10;99.90;;;;;;5111928;28;20345;-76
2023/07/05 00:07:37;;;;;;;;;;;14.00;99.90;;;;;;5113745;28;19950;-79
2023/07/05 00:10:03;;;;;;;;;;;14.00;99.90;;;;;;5096736;28;20695;-79
2023/07/05 00:12:28;;;;;;;;;;;14.00;99.90;;;;;;5113156;28;19928;-75
2023/07/05 00:14:54;;;;;;;;;;;14.00;99.90;;;;;;5096585;28;19950;-79
2023/07/05 00:17:19;;;;;;;;;;;14.00;99.90;;;;;;5113380;28;19924;-75
2023/07/05 00:19:49;;;;;;;;;;;13.90;99.90;;;;;;5113217;28;20380;-79
2023/07/05 00:22:14;;;;;;;;;;;13.90;99.90;;;;;;5113014;28;19924;-75
2023/07/05 00:24:40;;;;;;;;;;;13.90;99.90;;;;;;5113424;28;19931;-77
2023/07/05 00:27:06;;;;;;;;;;;13.80;99.90;;;;;;5096541;28;19924;-78
2023/07/05 00:29:31;;;;;;;;;;;13.80;99.90;;;;;;5095830;28;19920;-80
2023/07/05 00:31:57;;;;;;;;;;;13.80;99.90;;;;;;5096428;28;20335;-77
2023/07/05 00:34:22;;;;;;;;;;;13.80;99.90;;;;;;5111908;28;19983;-79
2023/07/05 00:36:48;;;;;;;;;;;13.80;99.90;;;;;;5112988;28;19962;-80
2023/07/05 00:39:13;;;;;;;;;;;13.80;99.90;;;;;;5123064;27;20045;-80
2023/07/05 00:41:40;;;;;;;;;;;13.80;99.90;;;;;;5133551;27;19923;-78
2023/07/05 00:44:05;;;;;;;;;;;13.80;99.90;;;;;;5117128;27;19966;-78
2023/07/05 00:46:31;;;;;;;;;;;13.80;99.90;;;;;;5134147;27;19966;-78
2023/07/05 00:49:02;;;;;;;;;;;13.80;99.90;;;;;;5134108;27;19928;-77
2023/07/05 00:51:29;;;;;;;;;;;13.80;99.90;;;;;;5096314;28;19928;-78
2023/07/05 00:53:57;;;;;;;;;;;13.80;99.90;;;;;;5116853;27;19930;-80
2023/07/05 00:56:24;;;;;;;;;;;13.70;99.90;;;;;;5133816;27;19965;-81
2023/07/05 00:58:51;;;;;;;;;;;13.70;99.90;;;;;;5116864;27;19927;-81
2023/07/05 01:01:17;;;;;;;;;;;13.70;99.90;;;;;;5133417;27;19930;-79
2023/07/05 01:03:43;;;;;;;;;;;13.70;99.90;;;;;;5133696;27;19923;-80
2023/07/05 01:06:12;;;;;;;;;;;13.70;99.90;;;;;;5116897;27;19929;-80
2023/07/05 01:08:38;;;;;;;;;;;13.60;99.90;;;;;;5133016;27;19920;-78
2023/07/05 01:11:10;;;;;;;;;;;13.70;99.90;;;;;;5133117;27;19926;-79
2023/07/05 01:13:46;;;;;;;;;;;13.70;99.90;;;;;;5133062;27;20014;-77
2023/07/05 01:16:27;;;;;;;;;;;13.70;99.90;;;;;;5116128;27;19919;-79
2023/07/05 01:18:55;;;;;;;;;;;13.70;99.90;;;;;;5133018;27;20010;-79
2023/07/05 01:21:28;;;;;;;;;;;13.70;99.90;;;;;;5133047;27;19919;-78
2023/07/05 01:24:17;;;;;;;;;;;13.70;99.90;;;;;;5133156;27;19930;-77
2023/07/05 01:27:07;;;;;;;;;;;13.70;99.90;;;;;;5132720;27;19935;-78
2023/07/05 01:29:32;;;;;;;;;;;13.70;99.90;;;;;;5132830;27;19942;-78
2023/07/05 01:32:04;;;;;;;;;;;13.70;99.90;;;;;;5133340;27;19923;-78
2023/07/05 01:34:37;;;;;;;;;;;13.80;99.90;;;;;;5115797;27;19919;-78
2023/07/05 01:37:06;;;;;;;;;;;13.80;99.90;;;;;;5116994;27;20272;-78
2023/07/05 01:39:33;;;;;;;;;;;13.80;99.90;;;;;;5132588;27;19928;-77
2023/07/05 01:41:59;;;;;;;;;;;13.80;99.90;;;;;;5132873;27;19927;-77
2023/07/05 01:44:24;;;;;;;;;;;13.80;99.90;;;;;;5133211;27;19920;-77
2023/07/05 01:47:09;;;;;;;;;;;13.90;99.90;;;;;;5132955;27;20374;-77
2023/07/05 01:49:46;;;;;;;;;;;13.90;99.90;;;;;;5132682;27;19920;-77
2023/07/05 01:52:15;;;;;;;;;;;13.90;99.90;;;;;;5115737;27;19920;-77
2023/07/05 01:54:48;;;;;;;;;;;13.90;99.90;;;;;;5132989;27;19923;-78
2023/07/05 01:57:17;;;;;;;;;;;13.90;99.90;;;;;;5133042;27;19930;-78
2023/07/05 01:59:45;;;;;;;;;;;13.80;99.90;;;;;;5115392;27;20452;-80
2023/07/05 02:02:12;;;;;;;;;;;13.90;99.90;;;;;;5132662;27;19924;-80
2023/07/05 02:04:38;;;;;;;;;;;13.90;99.90;;;;;;5098978;27;19926;-81
2023/07/05 02:07:04;;;;;;;;;;;13.90;99.90;;;;;;5116358;27;19923;-81
2023/07/05 02:09:35;;;;;;;;;;;13.90;99.90;;;;;;5115573;27;20364;-81
2023/07/05 02:12:00;;;;;;;;;;;13.80;99.90;;;;;;5133240;27;20031;-80
2023/07/05 02:14:26;;;;;;;;;;;13.80;99.90;;;;;;5115686;27;19924;-79
2023/07/05 02:16:51;;;;;;;;;;;13.80;99.90;;;;;;5132594;27;20013;-77
2023/07/05 02:19:17;;;;;;;;;;;13.80;99.90;;;;;;5114764;27;19923;-79
2023/07/05 02:21:43;;;;;;;;;;;13.80;99.90;;;;;;5115543;27;19919;-78
2023/07/05 02:24:08;;;;;;;;;;;13.80;99.90;;;;;;5132487;27;20403;-78
2023/07/05 02:26:34;;;;;;;;;;;13.70;99.90;;;;;;5131636;27;20385;-78
2023/07/05 02:29:00;;;;;;;;;;;13.70;99.90;;;;;;5131481;27;19923;-77
2023/07/05 02:31:25;;;;;;;;;;;13.70;99.90;;;;;;5131378;27;19966;-77
2023/07/05 02:33:51;;;;;;;;;;;13.70;99.90;;;;;;5131809;27;19977;-77
2023/07/05 02:36:17;;;;;;;;;;;13.60;99.90;;;;;;5114860;27;19923;-78
2023/07/05 02:38:43;;;;;;;;;;;13.60;99.90;;;;;;5131323;27;19923;-78
2023/07/05 02:41:09;;;;;;;;;;;13.60;99.90;;;;;;5114374;27;20382;-77
2023/07/05 02:43:34;;;;;;;;;;;13.60;99.90;;;;;;5131096;27;20002;-76
2023/07/05 02:46:00;;;;;;;;;;;13.60;99.90;;;;;;5097608;27;19923;-77
2023/07/05 02:48:26;;;;;;;;;;;13.60;99.90;;;;;;5114692;27;19919;-79
2023/07/05 02:50:52;;;;;;;;;;;13.60;99.90;;;;;;5115548;27;19934;-79
2023/07/05 02:53:17;;;;;;;;;;;13.60;99.90;;;;;;5111509;28;19959;-80
2023/07/05 02:55:43;;;;;;;;;;;13.70;99.90;;;;;;5094129;28;19927;-78
2023/07/05 02:58:09;;;;;;;;;;;13.70;99.90;;;;;;5094540;28;20373;-81
2023/07/05 03:00:34;;;;;;;;;;;13.70;99.90;;;;;;5112419;28;20326;-84
2023/07/05 03:03:00;;;;;;;;;;;13.60;99.90;;;;;;5095693;28;19920;-86
2023/07/05 03:05:26;;;;;;;;;;;13.70;99.90;;;;;;5112569;28;19971;-86
2023/07/05 03:07:52;;;;;;;;;;;13.70;99.90;;;;;;5095651;28;19968;-80
2023/07/05 03:10:17;;;;;;;;;;;13.70;99.90;;;;;;5095766;28;19978;-79
2023/07/05 03:12:43;;;;;;;;;;;13.70;99.90;;;;;;5095764;28;20303;-82
2023/07/05 03:15:09;;;;;;;;;;;13.70;99.90;;;;;;5095554;28;19984;-82
2023/07/05 03:17:34;;;;;;;;;;;13.70;99.90;;;;;;5094908;28;20364;-84
2023/07/05 03:20:00;;;;;;;;;;;13.70;99.90;;;;;;5078115;28;19928;-82
2023/07/05 03:22:26;;;;;;;;;;;13.70;99.90;;;;;;5078244;28;19920;-84
2023/07/05 03:24:52;;;;;;;;;;;13.70;99.90;;;;;;5077393;28;19919;-80
2023/07/05 03:27:18;;;;;;;;;;;13.70;99.90;;;;;;5094311;28;20301;-80
2023/07/05 03:29:43;;;;;;;;;;;13.70;99.90;;;;;;5112228;28;20039;-81
2023/07/05 03:32:09;;;;;;;;;;;13.70;99.90;;;;;;5113061;28;19920;-84
2023/07/05 03:34:34;;;;;;;;;;;13.80;99.90;;;;;;5112420;28;19920;-83
2023/07/05 03:37:00;;;;;;;;;;;13.70;99.90;;;;;;5094844;28;19927;-82
2023/07/05 03:39:26;;;;;;;;;;;13.70;99.90;;;;;;5096128;28;20319;-81
2023/07/05 03:41:51;;;;;;;;;;;13.80;99.90;;;;;;5099404;28;19959;-83
2023/07/05 03:44:21;;;;;;;;;;;13.80;99.90;;;;;;5099114;28;20377;-82
2023/07/05 03:46:48;;;;;;;;;;;13.80;99.90;;;;;;5115772;28;19920;-84
2023/07/05 03:49:14;;;;;;;;;;;13.80;99.90;;;;;;5084478;27;19942;-84
2023/07/05 03:51:40;;;;;;;;;;;13.70;99.90;;;;;;5102639;27;19919;-85
2023/07/05 03:54:06;;;;;;;;;;;13.80;99.90;;;;;;5137915;27;19976;-84
2023/07/05 03:56:33;;;;;;;;;;;13.90;99.90;;;;;;5119883;27;19919;-82
2023/07/05 03:58:59;;;;;;;;;;;13.80;99.90;;;;;;5119289;27;19927;-82
2023/07/05 04:01:25;;;;;;;;;;;13.80;99.90;;;;;;5136076;27;19923;-82
2023/07/05 04:03:55;;;;;;;;;;;13.80;99.90;;;;;;5135471;27;19927;-84
2023/07/05 04:06:21;;;;;;;;;;;13.90;99.90;;;;;;5118808;27;19920;-85
2023/07/05 04:08:47;;;;;;;;;;;13.90;99.90;;;;;;5120344;27;19931;-88
2023/07/05 04:11:12;;;;;;;;;;;13.90;99.90;;;;;;5137218;27;19919;-85
2023/07/05 04:13:38;;;;;;;;;;;13.90;99.90;;;;;;5119988;27;19923;-81
2023/07/05 04:16:04;;;;;;;;;;;13.90;99.90;;;;;;5103448;27;19964;-83
2023/07/05 04:18:30;;;;;;;;;;;13.90;99.90;;;;;;5119387;27;20024;-83
2023/07/05 04:20:56;;;;;;;;;;;13.90;99.90;;;;;;5101829;27;20010;-86
2023/07/05 04:23:22;;;;;;;;;;;14.00;99.90;;;;;;5118762;27;19920;-84
2023/07/05 04:25:48;;;;;;;;;;;14.10;99.90;;;;;;5135296;27;19923;-81
2023/07/05 04:28:14;;;;;;;;;;;14.10;99.90;;;;;;5118621;27;20372;-84
2023/07/05 04:30:39;;;;;;;;;;;14.10;99.90;;;;;;5102202;27;19920;-82
2023/07/05 04:33:05;;;;;;;;;;;14.20;99.90;;;;;;5136296;27;20013;-82
2023/07/05 04:35:30;;;;;;;;;;;14.20;99.90;;;;;;5102265;27;19923;-83
2023/07/05 04:37:56;;;;;;;;;;;14.20;99.90;;;;;;5135535;27;19924;-85
2023/07/05 04:40:22;;;;;;;;;;;14.30;99.90;;;;;;5114901;28;19919;-83
2023/07/05 04:42:48;;;;;;;;;;;14.30;99.90;;;;;;5114520;28;19927;-82
2023/07/05 04:45:13;;;;;;;;;;;14.40;99.90;;;;;;5097234;28;20268;-81
2023/07/05 04:47:42;;;;;;;;;;;14.40;99.90;;;;;;5113425;28;19927;-84
2023/07/05 04:50:08;;;;;;;;;;;14.50;99.90;;;;;;5106099;27;19919;-79
2023/07/05 04:52:33;;;;;;;;;;;14.50;99.90;;;;;;5117249;27;19919;-80
2023/07/05 04:54:59;;;;;;;;;;;14.50;99.90;;;;;;5116762;27;19949;-81
2023/07/05 04:57:27;;;;;;;;;;;14.50;99.90;;;;;;5116819;27;19928;-81
2023/07/05 04:59:53;;;;;;;;;;;14.50;99.90;;;;;;5116628;27;19928;-79
2023/07/05 05:02:19;;;;;;;;;;;14.50;99.90;;;;;;5134481;27;19945;-79
2023/07/05 05:04:45;;;;;;;;;;;14.50;99.90;;;;;;5116114;27;20067;-80
2023/07/05 05:07:11;;;;;;;;;;;14.50;99.90;;;;;;5134116;27;19923;-79
2023/07/05 05:09:38;;;;;;;;;;;14.50;99.90;;;;;;5133633;27;19923;-79
2023/07/05 05:12:04;;;;;;;;;;;14.50;99.90;;;;;;5133469;27;20022;-78
2023/07/05 05:14:29;;;;;;;;;;;14.50;99.90;;;;;;5133676;27;19963;-81
2023/07/05 05:16:55;;;;;;;;;;;14.50;99.90;;;;;;5116355;27;19927;-79
2023/07/05 05:19:21;;;;;;;;;;;14.50;99.90;;;;;;5116682;27;19976;-79
2023/07/05 05:21:52;;;;;;;;;;;14.40;99.90;;;;;;5133781;27;20013;-79
2023/07/05 05:24:18;;;;;;;;;;;14.30;99.90;;;;;;5117160;27;19923;-79
2023/07/05 05:26:44;;;;;;;;;;;14.30;99.90;;;;;;5116122;27;19926;-80
2023/07/05 05:29:10;;;;;;;;;;;14.20;99.90;;;;;;5133337;27;19920;-79
2023/07/05 05:31:42;;;;;;;;;;;14.30;99.90;;;;;;5117127;27;19919;-78
2023/07/05 05:34:07;;;;;;;;;;;14.30;99.90;;;;;;5116219;27;20356;-79
2023/07/05 05:36:33;;;;;;;;;;;14.20;99.90;;;;;;5133566;27;19988;-82
2023/07/05 05:38:58;;;;;;;;;;;14.20;99.90;;;;;;5132471;27;19934;-84
2023/07/05 05:41:24;;;;;;;;;;;14.20;99.90;;;;;;5099089;27;19919;-79
2023/07/05 05:43:50;;;;;;;;;;;14.20;99.90;;;;;;5115775;27;19928;-83
2023/07/05 05:46:16;;;;;;;;;;;14.20;99.90;;;;;;5116141;27;19923;-80
2023/07/05 05:48:42;;;;;;;;;;;14.10;99.90;;;;;;5116244;27;20418;-83
2023/07/05 05:51:07;;;;;;;;;;;14.10;99.90;;;;;;5132293;27;20002;-80
2023/07/05 05:53:33;;;;;;;;;;;14.10;99.90;;;;;;5115749;27;19962;-77
2023/07/05 05:55:59;;;;;;;;;;;14.10;99.90;;;;;;5132219;27;20261;-80
2023/07/05 05:58:25;;;;;;;;;;;14.10;99.90;;;;;;5115458;27;19927;-79
2023/07/05 06:00:51;;;;;;;;;;;14.20;99.90;;;;;;5131923;27;19993;-81
2023/07/05 06:03:17;;;;;;;;;;;14.30;99.90;;;;;;5131438;27;20383;-80
2023/07/05 06:05:42;;;;;;;;;;;14.40;99.90;;;;;;5097855;27;19926;-77
2023/07/05 06:08:08;;;;;;;;;;;14.50;99.90;;;;;;5132300;27;19934;-81
2023/07/05 06:10:34;;;;;;;;;;;14.50;99.90;;;;;;5132260;27;19970;-79
2023/07/05 06:13:00;;;;;;;;;;;14.60;99.90;;;;;;5114485;27;19963;-78
2023/07/05 06:15:26;;;;;;;;;;;14.70;99.90;;;;;;5132044;27;19927;-79
2023/07/05 06:17:52;;;;;;;;;;;14.90;99.90;;;;;;5114529;27;19931;-78
2023/07/05 06:20:18;;;;;;;;;;;14.90;99.90;;;;;;5114434;27;19923;-78
2023/07/05 06:22:43;;;;;;;;;;;15.00;99.90;;;;;;5131902;27;19920;-77
2023/07/05 06:25:10;;;;;;;;;;;15.10;99.90;;;;;;5096233;28;20444;-76
2023/07/05 06:27:35;;;;;;;;;;;15.10;99.90;;;;;;5094325;28;19978;-77
2023/07/05 06:30:01;;;;;;;;;;;15.10;99.90;;;;;;5110871;28;19971;-79
2023/07/05 06:32:27;;;;;;;;;;;15.00;99.90;;;;;;5123709;27;19958;-79
2023/07/05 06:34:52;;;;;;;;;;;15.00;99.90;;;;;;5131452;27;20291;-80
2023/07/05 06:37:18;;;;;;;;;;;15.00;99.90;;;;;;5131609;27;19927;-82
2023/07/05 06:39:44;;;;;;;;;;;15.00;99.90;;;;;;5131266;27;19931;-80
2023/07/05 06:42:09;;;;;;;;;;;15.00;99.90;;;;;;5114176;27;19930;-80
2023/07/05 06:44:41;;;;;;;;;;;15.10;99.90;;;;;;5131794;27;19926;-77
2023/07/05 06:47:06;;;;;;;;;;;15.20;99.90;;;;;;5114342;27;19979;-78
2023/07/05 06:49:32;;;;;;;;;;;15.20;99.90;;;;;;5131208;27;19971;-81
2023/07/05 06:51:58;;;;;;;;;;;15.10;99.90;;;;;;5131270;27;19930;-80
2023/07/05 06:54:23;;;;;;;;;;;15.10;99.90;;;;;;5097360;27;19950;-76
2023/07/05 06:56:49;;;;;;;;;;;15.20;99.90;;;;;;5131022;27;19942;-79
2023/07/05 06:59:14;;;;;;;;;;;15.30;99.90;;;;;;5130656;27;19923;-79
2023/07/05 07:01:40;;;;;;;;;;;15.20;99.90;;;;;;5130780;27;20556;-80
2023/07/05 07:04:06;;;;;;;;;;;15.00;99.90;;;;;;5113644;27;19923;-77
2023/07/05 07:06:32;;;;;;;;;;;15.00;99.90;;;;;;5114511;27;20010;-77
2023/07/05 07:08:58;;;;;;;;;;;15.00;99.90;;;;;;5131070;27;19923;-77
2023/07/05 07:11:24;;;;;;;;;;;14.90;99.90;;;;;;5130803;27;19923;-80
2023/07/05 07:13:49;;;;;;;;;;;14.80;99.90;;;;;;5130765;27;19919;-77
2023/07/05 07:16:16;;;;;;;;;;;15.00;99.90;;;;;;5130522;27;20025;-79
2023/07/05 07:18:44;;;;;;;;;;;15.20;99.90;;;;;;5113911;28;19970;-78
2023/07/05 07:21:10;;;;;;;;;;;15.50;99.90;;;;;;5130639;28;19964;-78
2023/07/05 07:23:37;;;;;;;;;;;15.80;99.90;;;;;;5092134;28;19919;-80
2023/07/05 07:26:05;;;;;;;;;;;16.00;99.90;;;;;;5093106;28;19920;-79
2023/07/05 07:28:32;;;;;;;;;;;16.10;99.90;;;;;;5104586;28;19926;-77
2023/07/05 07:30:58;;;;;;;;;;;16.40;99.90;;;;;;5130640;28;19934;-77
2023/07/05 07:33:24;;;;;;;;;;;16.40;99.90;;;;;;5131311;28;19919;-78
2023/07/05 07:35:49;;;;;;;;;;;16.30;99.90;;;;;;5114222;28;19924;-78
2023/07/05 07:38:16;;;;;;;;;;;16.10;99.90;;;;;;5130897;28;20430;-82
2023/07/05 07:40:42;;;;;;;;;;;15.70;99.90;;;;;;5130487;28;19923;-76
2023/07/05 07:43:14;;;;;;;;;;;15.40;99.90;;;;;;5130315;28;20019;-76
2023/07/05 07:45:39;;;;;;;;;;;15.10;99.90;;;;;;5113840;28;20368;-79
2023/07/05 07:48:05;;;;;;;;;;;15.20;99.90;;;;;;5130325;28;19930;-75
2023/07/05 07:50:31;;;;;;;;;;;15.30;99.90;;;;;;5130732;28;19919;-76
2023/07/05 07:52:56;;;;;;;;;;;15.10;99.90;;;;;;5113392;28;19962;-79
2023/07/05 07:55:22;;;;;;;;;;;15.10;99.90;;;;;;5131161;28;19920;-83
2023/07/05 07:57:53;;;;;;;;;;;14.90;99.90;;;;;;5114680;28;19975;-79
2023/07/05 08:00:19;;;;;;;;;;;14.70;99.90;;;;;;5130972;28;19984;-77
2023/07/05 08:02:46;;;;;;;;;;;14.60;99.90;;;;;;5131077;28;19923;-80
2023/07/05 08:05:13;;;;;;;;;;;14.30;99.90;;;;;;5130676;28;19942;-77
2023/07/05 08:07:45;;;;;;;;;;;14.10;99.90;;;;;;5131353;28;19967;-78
2023/07/05 08:10:11;;;;;;;;;;;13.90;99.90;;;;;;5114365;28;19919;-83
2023/07/05 08:12:38;;;;;;;;;;;13.80;99.90;;;;;;5114117;28;19920;-78
2023/07/05 08:15:04;;;;;;;;;;;13.60;99.90;;;;;;5114062;28;19930;-80
2023/07/05 08:17:30;;;;;;;;;;;13.60;99.90;;;;;;5131506;28;19930;-82
2023/07/05 08:19:56;;;;;;;;;;;13.60;99.90;;;;;;5108284;28;20381;-78
2023/07/05 08:22:21;;;;;;;;;;;13.50;99.90;;;;;;5110745;28;19926;-80
2023/07/05 08:24:47;;;;;;;;;;;13.30;99.90;;;;;;5101057;28;19972;-78
2023/07/05 08:27:12;;;;;;;;;;;13.10;99.90;;;;;;5096559;28;19920;-82
2023/07/05 08:29:38;;;;;;;;;;;12.90;99.90;;;;;;5096712;28;19930;-80
2023/07/05 08:32:04;;;;;;;;;;;12.70;99.90;;;;;;5080729;28;19923;-84
2023/07/05 08:34:30;;;;;;;;;;;12.50;99.90;;;;;;5081455;28;20276;-82
2023/07/05 08:36:56;;;;;;;;;;;12.40;99.90;;;;;;5097690;28;19924;-83
2023/07/05 08:39:22;;;;;;;;;;;12.30;99.90;;;;;;5114145;28;19967;-81
2023/07/05 08:41:54;;;;;;;;;;;12.30;99.90;;;;;;5097354;28;19954;-81
2023/07/05 08:44:21;;;;;;;;;;;12.20;99.90;;;;;;5114445;28;20019;-79
2023/07/05 08:46:55;;;;;;;;;;;12.10;99.90;;;;;;5097479;28;20268;-79
2023/07/05 08:49:30;;;;;;;;;;;12.00;99.90;;;;;;5099344;27;20288;-83
2023/07/05 08:51:56;;;;;;;;;;;11.90;99.90;;;;;;5134371;27;20595;-80
2023/07/05 08:54:23;;;;;;;;;;;11.90;99.90;;;;;;5133954;27;20002;-79
2023/07/05 08:56:51;;;;;;;;;;;11.80;99.90;;;;;;5134633;27;20284;-78
2023/07/05 08:59:35;;;;;;;;;;;11.80;99.90;;;;;;5133589;27;20617;-79
2023/07/05 09:02:01;;;;;;;;;;;11.80;99.90;;;;;;5116433;27;19919;-82
2023/07/05 09:04:29;;;;;;;;;;;11.80;99.90;;;;;;5134237;27;19924;-81
2023/07/05 09:07:00;;;;;;;;;;;11.80;99.90;;;;;;5117257;27;19980;-80
2023/07/05 09:09:29;;;;;;;;;;;11.80;99.90;;;;;;5134404;27;19923;-80
2023/07/05 09:11:55;;;;;;;;;;;11.70;99.90;;;;;;5134052;27;20698;-82
2023/07/05 09:14:41;;;;;;;;;;;11.70;99.90;;;;;;5135095;27;19919;-84
2023/07/05 09:17:23;;;;;;;;;;;11.70;99.90;;;;;;5117058;27;20382;-82
2023/07/05 09:20:02;;;;;;;;;;;11.70;99.90;;;;;;5117005;27;19927;-83
2023/07/05 09:22:32;;;;;;;;;;;11.80;99.90;;;;;;5118033;27;20094;-81
2023/07/05 09:24:58;;;;;;;;;;;11.80;99.90;;;;;;5134854;27;20314;-86
2023/07/05 09:27:26;;;;;;;;;;;11.80;99.90;;;;;;5116713;27;20356;-82
2023/07/05 09:30:09;;;;;;;;;;;11.80;99.90;;;;;;5117389;27;19968;-82
2023/07/05 09:32:37;;;;;;;;;;;11.80;99.90;;;;;;5134364;27;20340;-83
2023/07/05 09:35:03;;;;;;;;;;;11.90;99.90;;;;;;5134285;27;19930;-84
2023/07/05 09:37:33;;;;;;;;;;;12.00;99.90;;;;;;5134581;27;19924;-82
2023/07/05 09:40:09;;;;;;;;;;;12.10;99.90;;;;;;5133995;27;19928;-82
2023/07/05 09:42:40;;;;;;;;;;;12.20;99.90;;;;;;5134292;27;19996;-82
2023/07/05 09:45:10;;;;;;;;;;;12.30;99.90;;;;;;5116449;27;20014;-82
2023/07/05 09:47:35;;;;;;;;;;;12.50;99.90;;;;;;5116737;27;20688;-84
2023/07/05 09:50:01;;;;;;;;;;;12.60;99.90;;;;;;5116128;27;19923;-80
2023/07/05 09:52:27;;;;;;;;;;;12.70;99.90;;;;;;5132680;27;20593;-79
2023/07/05 09:54:57;;;;;;;;;;;12.70;99.90;;;;;;5133543;27;20280;-80
2023/07/05 09:57:24;;;;;;;;;;;12.80;99.90;;;;;;5115389;27;19919;-81
2023/07/05 09:59:52;;;;;;;;;;;12.90;99.90;;;;;;5132070;27;20018;-79
2023/07/05 10:02:19;;;;;;;;;;;12.90;99.90;;;;;;5132694;27;19919;-83
2023/07/05 10:04:45;;;;;;;;;;;13.00;99.90;;;;;;5132995;27;19930;-83
2023/07/05 10:07:14;;;;;;;;;;;13.10;99.90;;;;;;5115522;27;19923;-80
2023/07/05 10:09:52;;;;;;;;;;;13.10;99.90;;;;;;5132738;27;19926;-80
2023/07/05 10:12:19;;;;;;;;;;;13.20;99.90;;;;;;5132032;27;20015;-81
2023/07/05 10:14:53;;;;;;;;;;;13.30;99.90;;;;;;5115297;27;19919;-77
2023/07/05 10:17:18;;;;;;;;;;;13.30;99.90;;;;;;5114973;27;19923;-81
2023/07/05 10:19:49;;;;;;;;;;;13.40;99.90;;;;;;5132182;27;19928;-78
2023/07/05 10:22:27;;;;;;;;;;;13.50;99.90;;;;;;5115146;27;19919;-78
2023/07/05 10:24:59;;;;;;;;;;;13.70;99.90;;;;;;5132014;27;20394;-80
2023/07/05 10:27:31;;;;;;;;;;;13.90;99.90;;;;;;5131965;27;20404;-80
2023/07/05 10:30:00;;;;;;;;;;;14.20;99.90;;;;;;5132691;27;19923;-79
2023/07/05 10:32:26;;;;;;;;;;;14.50;99.90;;;;;;5132120;27;19931;-83
2023/07/05 10:34:51;;;;;;;;;;;14.80;99.90;;;;;;5132280;27;19924;-78
2023/07/05 10:37:26;;;;;;;;;;;14.90;99.90;;;;;;5132139;27;19959;-81
2023/07/05 10:39:52;;;;;;;;;;;15.00;99.90;;;;;;5115010;27;19928;-78
2023/07/05 10:42:18;;;;;;;;;;;15.00;99.90;;;;;;5132106;27;19919;-78
2023/07/05 10:44:43;;;;;;;;;;;15.00;99.90;;;;;;5114730;27;20016;-81
2023/07/05 10:47:11;;;;;;;;;;;15.00;99.90;;;;;;5132050;27;19927;-79
2023/07/05 10:49:37;;;;;;;;;;;15.10;99.90;;;;;;5131488;27;19970;-78
2023/07/05 10:52:05;;;;;;;;;;;15.10;99.90;;;;;;5131718;27;20374;-81
2023/07/05 10:54:46;;;;;;;;;;;15.20;99.90;;;;;;5131845;27;19923;-78
2023/07/05 10:57:11;;;;;;;;;;;15.30;99.90;;;;;;5131085;27;19930;-78
2023/07/05 10:59:45;;;;;;;;;;;15.40;99.90;;;;;;5131489;27;19927;-79
2023/07/05 11:02:10;;;;;;;;;;;15.60;99.90;;;;;;5130865;27;20340;-79
2023/07/05 11:04:38;;;;;;;;;;;15.80;99.90;;;;;;5131548;27;19930;-79
2023/07/05 11:07:10;;;;;;;;;;;16.10;99.90;;;;;;5131731;27;19930;-81
2023/07/05 11:09:41;;;;;;;;;;;16.20;99.90;;;;;;5114315;28;20014;-80
2023/07/05 11:12:27;;;;;;;;;;;16.20;99.90;;;;;;5114684;27;20322;-81
2023/07/05 11:14:53;;;;;;;;;;;16.30;99.90;;;;;;5131588;27;19946;-77
2023/07/05 11:17:37;;;;;;;;;;;16.40;99.90;;;;;;5113664;27;19974;-81
2023/07/05 11:20:23;;;;;;;;;;;16.50;99.90;;;;;;5113768;28;19928;-79
2023/07/05 11:22:48;;;;;;;;;;;16.60;99.90;;;;;;5131283;28;19931;-77
2023/07/05 11:25:17;;;;;;;;;;;16.90;99.90;;;;;;5113888;28;20415;-79
2023/07/05 11:27:48;;;;;;;;;;;17.20;99.90;;;;;;5131279;28;20333;-78
2023/07/05 11:30:33;;;;;;;;;;;17.30;99.90;;;;;;5131104;28;20010;-77
2023/07/05 11:33:00;;;;;;;;;;;17.40;99.90;;;;;;5131573;28;20472;-76
2023/07/05 11:35:47;;;;;;;;;;;17.30;99.90;;;;;;5131282;28;19923;-78
2023/07/05 11:38:32;;;;;;;;;;;17.20;99.90;;;;;;5114057;28;19928;-80
2023/07/05 11:40:59;;;;;;;;;;;17.30;99.90;;;;;;5131419;28;20356;-79
2023/07/05 11:43:26;;;;;;;;;;;17.40;99.90;;;;;;5131100;28;20424;-79
2023/07/05 11:45:52;;;;;;;;;;;17.50;99.90;;;;;;5131306;28;20265;-79
2023/07/05 11:48:41;;;;;;;;;;;17.50;99.90;;;;;;5098982;28;20035;-79
2023/07/05 11:51:22;;;;;;;;;;;17.40;99.90;;;;;;5130825;28;19975;-78
2023/07/05 11:53:48;;;;;;;;;;;17.20;99.90;;;;;;5114496;28;19970;-78
2023/07/05 11:56:15;;;;;;;;;;;17.10;99.90;;;;;;5130490;28;20359;-81
2023/07/05 11:58:42;;;;;;;;;;;17.20;99.90;;;;;;5130408;28;19924;-80
2023/07/05 12:01:12;;;;;;;;;;;17.40;99.90;;;;;;5132587;27;19981;-79
2023/07/05 12:03:41;;;;;;;;;;;17.60;99.90;;;;;;5117582;27;19924;-79
2023/07/05 12:06:10;;;;;;;;;;;17.80;99.90;;;;;;5117599;27;19920;-78
2023/07/05 12:08:41;;;;;;;;;;;17.80;99.90;;;;;;5135001;27;19927;-79
2023/07/05 12:11:08;;;;;;;;;;;17.70;99.90;;;;;;5135164;27;19972;-80
2023/07/05 12:13:35;;;;;;;;;;;17.60;99.90;;;;;;5134836;27;19923;-78
2023/07/05 12:16:06;;;;;;;;;;;17.40;99.90;;;;;;5134878;27;20010;-77
2023/07/05 12:18:33;;;;;;;;;;;17.10;99.90;;;;;;5134438;27;19923;-79
2023/07/05 12:21:02;;;;;;;;;;;16.50;99.90;;;;;;5134862;27;19931;-79
2023/07/05 12:23:28;;;;;;;;;;;15.80;99.90;;;;;;5134365;27;19976;-77
2023/07/05 12:25:56;;;;;;;;;;;15.20;99.90;;;;;;5134544;27;19982;-80
2023/07/05 12:28:26;;;;;;;;;;;14.80;99.90;;;;;;5117428;27;20271;-80
2023/07/05 12:31:11;;;;;;;;;;;14.50;99.90;;;;;;5135394;27;19923;-78
2023/07/05 12:33:37;;;;;;;;;;;14.30;99.90;;;;;;5134693;27;19927;-79
2023/07/05 12:36:06;;;;;;;;;;;14.00;99.90;;;;;;5101227;27;19919;-80
2023/07/05 12:38:32;;;;;;;;;;;13.80;99.90;;;;;;5117879;27;19919;-77
2023/07/05 12:40:59;;;;;;;;;;;13.60;99.90;;;;;;5118072;27;19930;-80
2023/07/05 12:43:32;;;;;;;;;;;13.60;99.90;;;;;;5134615;27;20380;-76
2023/07/05 12:46:09;;;;;;;;;;;13.40;99.90;;;;;;5135293;27;20414;-78
2023/07/05 12:48:36;;;;;;;;;;;13.60;99.90;;;;;;5117101;27;19931;-77
2023/07/05 12:51:14;;;;;;;;;;;13.20;99.90;;;;;;5117736;27;19973;-79
2023/07/05 12:53:40;;;;;;;;;;;13.20;99.90;;;;;;5115092;28;20453;-77
2023/07/05 12:56:08;;;;;;;;;;;13.20;99.90;;;;;;5097035;28;19970;-76
2023/07/05 12:58:35;;;;;;;;;;;13.10;99.90;;;;;;5113696;28;20582;-81
2023/07/05 13:01:01;;;;;;;;;;;13.30;99.90;;;;;;5113934;28;20019;-78
2023/07/05 13:03:28;;;;;;;;;;;13.10;99.90;;;;;;5080753;28;19920;-81
2023/07/05 13:05:54;;;;;;;;;;;12.90;99.90;;;;;;5097114;28;19920;-81
2023/07/05 13:08:20;;;;;;;;;;;13.00;99.90;;;;;;5113629;28;20004;-78
2023/07/05 13:10:46;;;;;;;;;;;13.00;99.90;;;;;;5113986;28;19928;-82
2023/07/05 13:13:21;;;;;;;;;;;12.90;99.90;;;;;;5096626;28;19924;-80
2023/07/05 13:15:47;;;;;;;;;;;12.90;99.90;;;;;;5114247;28;20399;-79
2023/07/05 13:18:26;;;;;;;;;;;12.80;99.90;;;;;;5114027;28;19920;-81
2023/07/05 13:21:06;;;;;;;;;;;12.70;99.90;;;;;;5113615;28;19928;-81
2023/07/05 13:23:32;;;;;;;;;;;12.60;99.90;;;;;;5114244;28;19924;-81
2023/07/05 13:25:57;;;;;;;;;;;12.60;99.90;;;;;;5081320;28;20296;-82
2023/07/05 13:28:24;;;;;;;;;;;12.50;99.90;;;;;;5080839;28;19968;-81
2023/07/05 13:30:59;;;;;;;;;;;12.60;99.90;;;;;;5114535;28;19962;-83
2023/07/05 13:33:25;;;;;;;;;;;12.40;99.90;;;;;;5114859;28;20689;-82
2023/07/05 13:35:51;;;;;;;;;;;12.30;99.90;;;;;;5115747;28;19972;-84
2023/07/05 13:38:17;;;;;;;;;;;12.30;99.90;;;;;;5115749;28;19927;-82
2023/07/05 13:41:10;;;;;;;;;;;12.30;99.90;;;;;;5099721;28;19923;-83
2023/07/05 13:43:35;;;;;;;;;;;12.20;99.90;;;;;;5095110;28;20001;-84
2023/07/05 13:46:01;;;;;;;;;;;12.20;99.90;;;;;;5081540;28;19928;-81
2023/07/05 13:48:27;;;;;;;;;;;12.20;99.90;;;;;;5115024;28;20372;-83
2023/07/05 13:50:53;;;;;;;;;;;12.20;99.90;;;;;;5130248;27;19927;-82
2023/07/05 13:53:20;;;;;;;;;;;12.30;99.90;;;;;;5117842;27;20557;-83
2023/07/05 13:55:46;;;;;;;;;;;12.30;99.90;;;;;;5117612;27;19926;-83
2023/07/05 13:58:13;;;;;;;;;;;12.40;99.90;;;;;;5118540;27;19923;-84
2023/07/05 14:00:39;;;;;;;;;;;12.40;99.90;;;;;;5135381;27;20400;-85
2023/07/05 14:03:06;;;;;;;;;;;12.50;99.90;;;;;;5118984;27;19926;-86
2023/07/05 14:05:32;;;;;;;;;;;12.50;99.90;;;;;;5118242;27;19919;-83
2023/07/05 14:07:58;;;;;;;;;;;12.50;99.90;;;;;;5117894;27;19928;-82
2023/07/05 14:10:24;;;;;;;;;;;12.50;99.90;;;;;;5134716;27;19972;-83
2023/07/05 14:12:50;;;;;;;;;;;12.50;99.90;;;;;;5118052;27;19967;-81
2023/07/05 14:15:16;;;;;;;;;;;12.50;99.90;;;;;;5135294;27;20276;-84
2023/07/05 14:17:42;;;;;;;;;;;12.50;99.90;;;;;;5134977;27;19940;-82
2023/07/05 14:20:09;;;;;;;;;;;12.50;99.90;;;;;;5134940;27;19924;-84